Time;durP1;ratioP1;P1;durP2;ratioP2;P2;SDS_P1;SDS_P2;PMS_P1;PMS_P2;Temp;Humidity;BMP_temperature;BMP_pressure;BME280_temperature;BME280_humidity;BME280_pressure;Samples;Min_cycle;Max_cycle;Signal;HPM_P1;HPM_P2
2022/12/19 00:00:21;;;;;;;42.33;21.48;;;;;;;;;;5087374;28;20055;-64
2022/12/19 00:02:47;;;;;;;40.35;19.20;;;;;;;;;;5087300;28;20046;-63
2022/12/19 00:05:13;;;;;;;38.28;18.70;;;;;;;;;;5069210;28;20032;-64
2022/12/19 00:07:39;;;;;;;50.92;21.85;;;;;;;;;;5087080;28;20040;-64
2022/12/19 00:10:06;;;;;;;47.25;22.35;;;;;;;;;;5068764;28;20402;-65
2022/12/19 00:12:32;;;;;;;39.95;15.50;;;;;;;;;;5086922;28;20507;-65
2022/12/19 00:14:58;;;;;;;44.70;20.38;;;;;;;;;;5087171;28;20040;-65
2022/12/19 00:17:24;;;;;;;47.38;20.48;;;;;;;;;;5086884;28;20545;-65
2022/12/19 00:19:51;;;;;;;38.70;18.05;;;;;;;;;;5086818;28;20040;-65
2022/12/19 00:22:17;;;;;;;35.80;17.02;;;;;;;;;;5086767;28;20501;-65
2022/12/19 00:24:43;;;;;;;42.08;16.85;;;;;;;;;;5068781;28;20040;-66
2022/12/19 00:27:09;;;;;;;42.95;20.70;;;;;;;;;;5068473;28;20505;-64
2022/12/19 00:29:34;;;;;;;44.05;22.13;;;;;;;;;;5086811;28;20066;-64
2022/12/19 00:32:00;;;;;;;40.45;18.77;;;;;;;;;;5068706;28;20055;-64
2022/12/19 00:34:26;;;;;;;50.88;23.25;;;;;;;;;;5087238;28;20043;-65
2022/12/19 00:36:52;;;;;;;50.45;22.45;;;;;;;;;;5086603;28;20097;-65
2022/12/19 00:39:18;;;;;;;47.13;21.83;;;;;;;;;;5086538;28;20518;-65
2022/12/19 00:41:44;;;;;;;45.38;19.65;;;;;;;;;;5086748;28;20071;-65
2022/12/19 00:44:14;;;;;;;41.75;19.40;;;;;;;;;;5086491;28;20035;-64
2022/12/19 00:46:40;;;;;;;36.97;17.08;;;;;;;;;;5068350;28;20520;-65
2022/12/19 00:49:06;;;;;;;47.38;20.42;;;;;;;;;;5090289;28;20284;-64
2022/12/19 00:51:34;;;;;;;43.33;21.60;;;2.10;99.90;;;;;;5072831;28;20079;-64
2022/12/19 00:54:01;;;;;;;46.80;20.35;;;;;;;;;;5072774;28;20052;-64
2022/12/19 00:56:34;;;;;;;51.35;23.27;;;1.90;99.90;;;;;;5091155;28;20139;-64
2022/12/19 00:59:00;;;;;;;41.75;19.88;;;;;;;;;;5072592;28;20561;-65
2022/12/19 01:01:27;;;;;;;47.22;20.63;;;;;;;;;;5072940;28;20165;-65
2022/12/19 01:03:54;;;;;;;37.22;17.20;;;;;;;;;;5072735;28;20043;-63
2022/12/19 01:06:20;;;;;;;35.55;18.75;;;;;;;;;;5090662;28;20074;-64
2022/12/19 01:08:46;;;;;;;45.58;21.52;;;;;;;;;;5090840;28;20407;-64
2022/12/19 01:11:12;;;;;;;43.85;18.83;;;;;;;;;;5090805;28;20051;-64
2022/12/19 01:13:39;;;;;;;43.50;21.63;;;2.00;99.90;;;;;;5090656;28;20040;-64
2022/12/19 01:16:12;;;;;;;41.03;20.08;;;;;;;;;;5072579;28;20047;-62
2022/12/19 01:18:38;;;;;;;40.60;20.50;;;;;;;;;;5090344;28;20061;-63
2022/12/19 01:21:06;;;;;;;44.58;20.83;;;;;;;;;;5072006;28;20040;-63
2022/12/19 01:23:32;;;;;;;37.20;18.17;;;;;;;;;;5090239;28;20044;-63
2022/12/19 01:25:58;;;;;;;43.90;20.88;;;;;;;;;;5072465;28;20458;-63
2022/12/19 01:28:25;;;;;;;34.38;16.55;;;;;;;;;;5055458;28;20482;-63
2022/12/19 01:30:51;;;;;;;50.70;22.23;;;;;;;;;;5071907;28;20639;-62
2022/12/19 01:33:19;;;;;;;39.05;18.10;;;;;;;;;;5080293;28;20047;-63
2022/12/19 01:35:47;;;;;;;40.00;17.83;;;;;;;;;;5102742;28;20039;-63
2022/12/19 01:38:14;;;;;;;41.78;19.58;;;2.20;99.90;;;;;;5096164;28;20142;-62
2022/12/19 01:40:40;;;;;;;41.83;19.70;;;;;;;;;;5073257;28;20516;-63
2022/12/19 01:43:12;;;;;;;42.08;20.52;;;;;;;;;;5089921;28;20058;-62
2022/12/19 01:45:38;;;;;;;36.75;15.40;;;;;;;;;;5093219;28;20047;-62
2022/12/19 01:48:20;;;;;;;49.42;23.15;;;2.10;99.90;;;;;;5089575;28;20051;-62
2022/12/19 01:50:56;;;;;;;45.90;21.52;;;;;;;;;;5072794;28;20044;-62
2022/12/19 01:53:21;;;;;;;;;;;;;;;;;;5090498;28;20114;-62
2022/12/19 01:55:47;;;;;;;52.33;21.75;;;;;;;;;;5089774;28;19959;-62
2022/12/19 01:58:14;;;;;;;51.63;23.13;;;;;;;;;;5094059;28;20036;-61
2022/12/19 02:00:43;;;;;;;61.42;26.23;;;;;;;;;;5070733;28;20105;-62
2022/12/19 02:03:14;;;;;;;46.00;21.50;;;;;;;;;;5071774;28;20047;-63
2022/12/19 02:05:40;;;;;;;54.53;24.45;;;;;;;;;;5089796;28;20497;-62
2022/12/19 02:08:06;;;;;;;63.88;27.25;;;;;;;;;;5089735;28;20595;-63
2022/12/19 02:10:33;;;;;;;62.13;25.58;;;;;;;;;;5071230;28;20568;-63
2022/12/19 02:12:59;;;;;;;60.50;26.35;;;;;;;;;;5090190;28;20048;-63
2022/12/19 02:15:28;;;;;;;60.90;25.98;;;;;;;;;;5075545;28;20077;-62
2022/12/19 02:17:54;;;;;;;63.67;26.48;;;;;;;;;;5089836;28;20036;-62
2022/12/19 02:20:36;;;;;;;54.15;24.63;;;2.10;99.90;;;;;;5089289;28;20066;-63
2022/12/19 02:23:08;;;;;;;59.88;26.52;;;;;;;;;;5071122;28;20048;-62
2022/12/19 02:25:47;;;;;;;47.47;22.60;;;;;;;;;;5088912;28;20032;-62
2022/12/19 02:28:19;;;;;;;48.30;21.60;;;;;;;;;;5070789;28;20040;-62
2022/12/19 02:31:15;;;;;;;58.20;25.77;;;2.40;99.90;;;;;;5085753;28;20052;-62
2022/12/19 02:33:43;;;;;;;45.72;22.85;;;;;;;;;;5070429;28;20097;-63
2022/12/19 02:36:21;;;;;;;58.95;26.33;;;2.10;99.90;;;;;;5089074;28;20102;-63
2022/12/19 02:38:56;;;;;;;51.67;22.85;;;;;;;;;;5070215;28;20089;-62
2022/12/19 02:41:28;;;;;;;69.72;27.65;;;2.40;99.90;;;;;;5088894;28;20040;-62
2022/12/19 02:43:55;;;;;;;56.55;25.45;;;;;;;;;;5070273;28;20048;-60
2022/12/19 02:46:22;;;;;;;64.65;26.15;;;;;;;;;;5088951;28;20553;-62
2022/12/19 02:48:48;;;;;;;61.28;26.13;;;;;;;;;;5089130;28;20448;-59
2022/12/19 02:51:15;;;;;;;73.68;30.33;;;;;;;;;;5088774;28;20039;-61
2022/12/19 02:53:41;;;;;;;65.35;28.77;;;2.30;99.90;;;;;;5070938;28;20589;-61
2022/12/19 02:56:19;;;;;;;67.82;29.15;;;;;;;;;;5088773;28;20042;-60
2022/12/19 02:58:45;;;;;;;70.50;29.88;;;;;;;;;;5097213;28;20140;-61
2022/12/19 03:01:14;;;;;;;63.67;28.63;;;;;;;;;;5093341;28;20040;-61
2022/12/19 03:03:58;;;;;;;53.88;23.27;;;2.20;99.90;;;;;;5088274;28;20048;-61
2022/12/19 03:06:48;;;;;;;75.32;30.67;;;;;;;;;;5069620;28;20101;-61
2022/12/19 03:09:24;;;;;;;75.18;32.35;;;;;;;;;;5088166;28;20044;-61
2022/12/19 03:11:56;;;;;;;53.33;23.23;;;;;;;;;;5086633;28;20039;-60
2022/12/19 03:14:23;;;;;;;67.03;30.15;;;;;;;;;;5069651;28;20048;-59
2022/12/19 03:16:49;;;;;;;67.95;29.13;;;;;;;;;;5087861;28;20032;-60
2022/12/19 03:19:15;;;;;;;76.22;31.08;;;;;;;;;;5069606;28;20133;-60
2022/12/19 03:21:43;;;;;;;84.40;34.25;;;;;;;;;;5069505;28;20127;-61
2022/12/19 03:24:11;;;;;;;74.75;32.33;;;;;;;;;;5088440;28;20412;-61
2022/12/19 03:26:41;;;;;;;78.40;35.20;;;;;;;;;;5087625;28;20040;-62
2022/12/19 03:29:32;;;;;;;81.22;35.75;;;2.70;99.90;;;;;;5069566;28;20036;-61
2022/12/19 03:32:00;;;;;;;70.85;29.02;;;;;;;;;;5069711;28;20122;-61
2022/12/19 03:34:34;;;;;;;76.20;34.25;;;3.00;99.90;;;;;;5087688;28;20051;-60
2022/12/19 03:37:01;;;;;;;57.25;25.52;;;;;;;;;;5087312;28;20525;-61
2022/12/19 03:39:28;;;;;;;76.00;31.73;;;;;;;;;;5087621;28;20129;-63
2022/12/19 03:44:41;;;;;;;71.82;31.55;;;;;;;;;;5088037;28;20508;-61
2022/12/19 03:47:16;;;;;;;74.07;32.78;;;;;;;;;;5087253;28;20035;-61
2022/12/19 03:49:44;;;;;;;77.85;31.20;;;;;;;;;;5069312;28;20059;-61
2022/12/19 03:52:42;;;;;;;70.38;32.17;;;;;;;;;;5068895;28;20509;-61
2022/12/19 03:55:36;;;;;;;75.80;32.70;;;3.00;99.90;;;;;;5025412;28;20052;-61
2022/12/19 03:58:09;;;;;;;74.65;33.70;;;;;;;;;;5087431;28;20048;-61
2022/12/19 04:00:36;;;;;;;83.18;33.80;;;;;;;;;;5073353;28;20055;-61
2022/12/19 04:03:02;;;;;;;57.83;25.90;;;;;;;;;;5069480;28;20036;-61
2022/12/19 04:05:28;;;;;;;71.80;30.77;;;;;;;;;;5069216;28;20039;-61
2022/12/19 04:07:58;;;;;;;64.47;28.25;;;2.90;99.90;;;;;;5079645;28;20043;-61
2022/12/19 04:10:26;;;;;;;71.82;32.33;;;;;;;;;;5071684;28;20040;-61
2022/12/19 04:12:56;;;;;;;79.32;34.65;;;3.00;99.90;;;;;;5087456;28;20093;-59
2022/12/19 04:15:32;;;;;;;66.10;29.40;;;;;;;;;;5089145;28;20047;-61
2022/12/19 04:17:59;;;;;;;72.55;31.63;;;3.10;99.90;;;;;;5097997;28;20105;-61
2022/12/19 04:20:26;;;;;;;71.25;32.03;;;;;;;;;;5086956;28;20494;-62
2022/12/19 04:22:59;;;;;;;74.72;32.25;;;;;;;;;;5068508;28;20048;-61
2022/12/19 04:25:28;;;;;;;80.18;32.72;;;3.40;99.90;;;;;;5068635;28;20474;-61
2022/12/19 04:27:56;;;;;;;81.75;33.78;;;;;;;;;;5068685;28;20036;-61
2022/12/19 04:30:22;;;;;;;78.32;33.50;;;;;;;;;;5086555;28;20584;-61
2022/12/19 04:32:49;;;;;;;73.53;30.25;;;;;;;;;;5092125;28;20061;-62
2022/12/19 04:35:15;;;;;;;69.72;31.98;;;;;;;;;;5077638;28;20494;-62
2022/12/19 04:37:41;;;;;;;77.82;32.50;;;;;;;;;;5086605;28;20043;-62
2022/12/19 04:40:08;;;;;;;76.95;33.17;;;;;;;;;;5068699;28;20462;-61
2022/12/19 04:42:34;;;;;;;71.97;29.10;;;;;;;;;;5086674;28;20048;-61
2022/12/19 04:45:00;;;;;;;67.75;27.52;;;;;;;;;;5068278;28;20040;-62
2022/12/19 04:47:25;;;;;;;67.32;29.88;;;;;;;;;;5068426;28;20047;-61
2022/12/19 04:49:52;;;;;;;71.13;31.88;;;;;;;;;;5084588;28;20056;-61
2022/12/19 04:52:18;;;;;;;63.75;30.23;;;;;;;;;;5086805;28;20048;-61
2022/12/19 04:54:44;;;;;;;66.00;29.25;;;;;;;;;;5071131;28;20043;-61
2022/12/19 04:57:10;;;;;;;70.40;29.40;;;;;;;;;;5072950;28;20078;-61
2022/12/19 04:59:35;;;;;;;63.78;27.30;;;;;;;;;;5086491;28;20040;-61
2022/12/19 05:02:01;;;;;;;72.43;29.98;;;;;;;;;;5072863;28;20036;-61
2022/12/19 05:04:27;;;;;;;69.13;27.70;;;;;;;;;;5068015;28;20413;-61
2022/12/19 05:06:53;;;;;;;62.65;27.38;;;;;;;;;;5095427;28;20036;-60
2022/12/19 05:09:20;;;;;;;73.85;29.98;;;;;;;;;;5096183;28;20040;-61
2022/12/19 05:11:46;;;;;;;76.60;32.20;;;;;;;;;;5086260;28;20139;-61
2022/12/19 05:14:12;;;;;;;73.82;30.33;;;;;;;;;;5092362;28;20127;-61
2022/12/19 05:16:37;;;;;;;70.25;30.15;;;;;;;;;;5091190;28;20490;-62
2022/12/19 05:19:03;;;;;;;67.30;30.42;;;;;;;;;;5085996;28;20433;-61
2022/12/19 05:21:29;;;;;;;69.45;31.55;;;;;;;;;;5067827;28;20044;-61
2022/12/19 05:23:55;;;;;;;80.80;35.25;;;;;;;;;;5086314;28;20032;-61
2022/12/19 05:26:21;;;;;;;75.35;31.55;;;;;;;;;;5086374;28;20070;-61
2022/12/19 05:28:47;;;;;;;74.18;30.92;;;;;;;;;;5086297;28;20089;-61
2022/12/19 05:31:15;;;;;;;69.43;31.80;;;;;;;;;;5068050;28;20059;-62
2022/12/19 05:33:41;;;;;;;70.38;29.85;;;;;;;;;;5068202;28;20107;-61
2022/12/19 05:36:08;;;;;;;79.32;29.83;;;;;;;;;;5089443;28;20040;-61
2022/12/19 05:38:34;;;;;;;69.88;28.50;;;;;;;;;;5071839;28;20545;-61
2022/12/19 05:41:05;;;;;;;64.03;27.95;;;;;;;;;;5089811;28;20058;-61
2022/12/19 05:43:31;;;;;;;53.70;23.02;;;;;;;;;;5089935;28;20101;-60
2022/12/19 05:45:57;;;;;;;62.45;27.88;;;;;;;;;;5089734;28;20040;-62
2022/12/19 05:48:23;;;;;;;67.05;29.00;;;;;;;;;;5089691;28;20040;-62
2022/12/19 05:50:50;;;;;;;56.38;25.75;;;;;;;;;;5071674;28;20083;-61
2022/12/19 05:53:16;;;;;;;64.43;28.67;;;;;;;;;;5090210;28;20147;-61
2022/12/19 05:55:42;;;;;;;71.35;30.08;;;;;;;;;;5071705;28;20056;-61
2022/12/19 05:58:08;;;;;;;64.88;27.95;;;;;;;;;;5071687;28;20044;-62
2022/12/19 06:00:34;;;;;;;60.88;27.63;;;;;;;;;;5071397;28;20044;-61
2022/12/19 06:03:00;;;;;;;57.13;27.63;;;;;;;;;;5071360;28;20040;-61
2022/12/19 06:05:26;;;;;;;53.70;23.48;;;;;;;;;;5089647;28;20044;-61
2022/12/19 06:07:52;;;;;;;63.00;26.77;;;;;;;;;;5101908;28;20483;-62
2022/12/19 06:10:18;;;;;;;59.38;26.23;;;;;;;;;;5104612;28;20035;-61
2022/12/19 06:12:44;;;;;;;54.58;25.50;;;;;;;;;;5107578;28;20615;-61
2022/12/19 06:15:10;;;;;;;53.75;22.42;;;4.10;99.90;;;;;;5087664;28;20047;-63
2022/12/19 06:17:36;;;;;;;59.35;25.17;;;;;;;;;;5089833;28;20040;-62
2022/12/19 06:20:01;;;;;;;60.00;27.42;;;4.10;99.90;;;;;;5106710;28;20089;-61
2022/12/19 06:22:27;;;;;;;50.30;22.60;;;;;;;;;;5106452;28;20490;-61
2022/12/19 06:24:53;;;;;;;56.70;26.65;;;;;;;;;;5107262;28;20074;-61
2022/12/19 06:27:19;;;;;;;50.33;20.50;;;;;;;;;;5087066;28;20028;-63
2022/12/19 06:29:45;;;;;;;58.38;26.17;;;;;;;;;;5107883;28;20040;-63
2022/12/19 06:32:11;;;;;;;57.92;25.10;;;;;;;;;;5107147;28;20052;-63
2022/12/19 06:34:37;;;;;;;51.30;26.02;;;4.10;99.90;;;;;;5108289;28;20031;-63
2022/12/19 06:37:03;;;;;;;55.30;25.35;;;;;;;;;;5107604;28;20504;-62
2022/12/19 06:39:29;;;;;;;54.08;24.02;;;;;;;;;;5094505;28;20570;-62
2022/12/19 06:44:40;;;;;;;52.00;22.93;;;;;;;;;;5106032;28;20039;-61
2022/12/19 06:47:05;;;;;;;57.80;23.80;;;4.40;99.90;;;;;;5087891;28;20031;-62
2022/12/19 06:49:31;;;;;;;54.50;24.00;;;;;;;;;;5084856;28;20840;-61
2022/12/19 06:51:57;;;;;;;37.00;18.20;;;;;;;;;;5100654;28;20035;-61
2022/12/19 06:54:23;;;;;;;55.08;24.88;;;;;;;;;;5095415;28;20098;-61
2022/12/19 06:56:49;;;;;;;49.83;22.02;;;;;;;;;;5095873;28;20046;-62
2022/12/19 06:59:16;;;;;;;48.17;22.05;;;;;;;;;;5101479;28;20138;-61
2022/12/19 07:01:57;;;;;;;52.45;22.30;;;;;;;;;;5080374;28;20562;-62
2022/12/19 07:04:29;;;;;;;46.92;22.33;;;;;;;;;;5091116;28;20477;-62
2022/12/19 07:06:55;;;;;;;40.78;20.35;;;;;;;;;;5100814;28;20032;-60
2022/12/19 07:09:21;;;;;;;45.88;22.98;;;;;;;;;;5103491;28;20051;-62
2022/12/19 07:11:47;;;;;;;49.72;22.75;;;;;;;;;;5085213;28;20043;-64
2022/12/19 07:14:13;;;;;;;54.15;24.42;;;;;;;;;;5086948;28;20092;-64
2022/12/19 07:16:39;;;;;;;40.42;20.13;;;;;;;;;;5091703;28;20125;-65
2022/12/19 07:19:07;;;;;;;49.17;22.38;;;4.80;99.90;;;;;;5080087;28;20572;-65
2022/12/19 07:21:33;;;;;;;42.35;20.58;;;;;;;;;;5068725;28;20126;-65
2022/12/19 07:24:00;;;;;;;46.45;21.63;;;;;;;;;;5083480;28;20071;-66
2022/12/19 07:26:26;;;;;;;46.03;21.98;;;;;;;;;;5071069;28;20089;-66
2022/12/19 07:28:53;;;;;;;51.75;22.00;;;;;;;;;;5102348;28;20513;-66
2022/12/19 07:31:19;;;;;;;44.08;20.10;;;;;;;;;;5084639;28;20059;-66
2022/12/19 07:33:45;;;;;;;46.67;22.92;;;;;;;;;;5092239;28;20608;-65
2022/12/19 07:36:11;;;;;;;50.90;22.58;;;;;;;;;;5091163;28;20075;-66
2022/12/19 07:38:37;;;;;;;54.88;23.33;;;;;;;;;;5096813;28;20075;-64
2022/12/19 07:41:03;;;;;;;51.50;23.65;;;;;;;;;;5065082;28;20131;-63
2022/12/19 07:43:28;;;;;;;46.05;22.67;;;5.00;99.90;;;;;;5095088;28;20043;-64
2022/12/19 07:45:55;;;;;;;48.03;22.95;;;;;;;;;;5071932;28;20788;-62
2022/12/19 07:48:21;;;;;;;44.85;22.55;;;;;;;;;;5074499;28;20047;-66
2022/12/19 07:50:47;;;;;;;51.97;23.08;;;;;;;;;;5077624;28;20409;-64
2022/12/19 07:53:14;;;;;;;46.88;23.10;;;;;;;;;;5076326;28;20047;-64
2022/12/19 07:55:40;;;;;;;53.17;23.20;;;;;;;;;;5104898;28;20050;-68
2022/12/19 07:58:06;;;;;;;48.70;23.35;;;;;;;;;;5082223;28;20044;-63
2022/12/19 08:00:32;;;;;;;47.55;22.45;;;;;;;;;;5071593;28;20048;-64
2022/12/19 08:02:59;;;;;;;44.40;21.17;;;;;;;;;;5070185;28;20055;-64
2022/12/19 08:05:25;;;;;;;43.53;20.75;;;;;;;;;;5074981;28;20467;-64
2022/12/19 08:07:53;;;;;;;50.47;21.65;;;;;;;;;;5090636;28;20044;-64
2022/12/19 08:10:21;;;;;;;45.60;21.83;;;;;;;;;;5068712;28;20454;-64
2022/12/19 08:12:47;;;;;;;44.25;21.05;;;;;;;;;;5080721;28;20128;-65
2022/12/19 08:15:13;;;;;;;38.20;19.20;;;;;;;;;;5085003;28;20031;-62
2022/12/19 08:17:40;;;;;;;40.42;20.48;;;;;;;;;;5081632;28;20036;-62
2022/12/19 08:20:06;;;;;;;39.35;19.08;;;;;;;;;;5077513;28;20498;-64
2022/12/19 08:22:32;;;;;;;39.85;19.95;;;;;;;;;;5060411;28;20053;-65
2022/12/19 08:24:58;;;;;;;37.75;19.88;;;;;;;;;;5103988;28;20042;-64
2022/12/19 08:27:24;;;;;;;34.63;17.73;;;;;;;;;;5101502;28;20074;-64
2022/12/19 08:29:51;;;;;;;36.95;20.55;;;;;;;;;;5083503;28;20083;-62
2022/12/19 08:32:17;;;;;;;38.63;20.33;;;;;;;;;;5070281;28;20052;-64
2022/12/19 08:34:43;;;;;;;37.92;20.30;;;;;;;;;;5069724;28;20059;-65
2022/12/19 08:37:09;;;;;;;39.55;18.95;;;;;;;;;;5100305;28;20438;-65
2022/12/19 08:39:35;;;;;;;37.70;20.92;;;6.00;99.90;;;;;;5084000;28;20048;-65
2022/12/19 08:42:01;;;;;;;37.92;20.00;;;;;;;;;;5103634;28;20090;-66
2022/12/19 08:44:27;;;;;;;40.42;20.40;;;;;;;;;;5103509;28;20039;-64
2022/12/19 08:46:53;;;;;;;33.47;17.80;;;;;;;;;;5090362;28;20043;-65
2022/12/19 08:49:19;;;;;;;40.05;20.77;;;;;;;;;;5095775;28;20043;-64
2022/12/19 08:51:46;;;;;;;35.65;19.15;;;;;;;;;;5093991;28;20075;-65
2022/12/19 08:54:12;;;;;;;34.40;18.27;;;;;;;;;;5083244;28;20061;-66
2022/12/19 08:56:38;;;;;;;36.92;19.95;;;;;;;;;;5081946;28;20051;-64
2022/12/19 08:59:05;;;;;;;35.75;18.63;;;;;;;;;;5085806;28;20116;-64
2022/12/19 09:01:31;;;;;;;38.17;19.80;;;;;;;;;;5086093;28;20047;-62
2022/12/19 09:04:00;;;;;;;35.50;19.35;;;;;;;;;;5086234;28;20036;-63
2022/12/19 09:06:26;;;;;;;44.28;21.05;;;6.10;99.90;;;;;;5085263;28;20036;-63
2022/12/19 09:08:52;;;;;;;38.45;20.95;;;;;;;;;;5086718;28;20032;-64
2022/12/19 09:11:18;;;;;;;44.13;21.88;;;;;;;;;;5066122;28;20121;-64
2022/12/19 09:13:45;;;;;;;38.10;21.65;;;;;;;;;;5071976;28;20178;-63
2022/12/19 09:16:13;;;;;;;38.15;20.17;;;;;;;;;;5072086;28;20440;-63
2022/12/19 09:18:39;;;;;;;41.55;21.77;;;;;;;;;;5072046;28;20036;-64
2022/12/19 09:21:05;;;;;;;39.97;20.63;;;;;;;;;;5094641;28;20051;-63
2022/12/19 09:23:31;;;;;;;40.80;21.85;;;6.40;99.90;;;;;;5094858;28;20035;-64
2022/12/19 09:26:01;;;;;;;40.13;22.15;;;;;;;;;;5075503;28;20415;-66
2022/12/19 09:28:27;;;;;;;38.97;22.15;;;;;;;;;;5071096;28;20104;-66
2022/12/19 09:30:57;;;;;;;38.20;20.35;;;;;;;;;;5069435;28;20063;-64
2022/12/19 09:33:23;;;;;;;35.92;21.58;;;;;;;;;;5072078;28;20493;-65
2022/12/19 09:35:53;;;;;;;40.83;20.45;;;;;;;;;;5101978;28;20043;-65
2022/12/19 09:38:19;;;;;;;40.63;21.77;;;;;;;;;;5105468;28;20043;-65
2022/12/19 09:40:57;;;;;;;38.95;21.67;;;;;;;;;;5083278;28;20044;-64
2022/12/19 09:43:26;;;;;;;36.72;21.00;;;;;;;;;;5084000;28;20481;-65
2022/12/19 09:46:15;;;;;;;42.17;22.70;;;;;;;;;;5085168;28;20465;-65
2022/12/19 09:48:42;;;;;;;36.25;20.38;;;;;;;;;;5106612;28;20035;-65
2022/12/19 09:51:14;;;;;;;40.08;22.48;;;;;;;;;;5104780;28;20517;-65
2022/12/19 09:54:15;;;;;;;36.17;21.27;;;;;;;;;;5101766;28;20422;-65
2022/12/19 09:56:43;;;;;;;34.13;19.13;;;;;;;;;;4986149;28;20050;-64
2022/12/19 09:59:23;;;;;;;37.10;20.95;;;7.20;99.90;;;;;;5072979;28;20063;-65
2022/12/19 10:01:55;;;;;;;36.65;21.20;;;;;;;;;;5103048;28;20054;-65
2022/12/19 10:04:25;;;;;;;32.72;19.02;;;;;;;;;;5105482;28;20402;-65
2022/12/19 10:06:51;;;;;;;35.70;20.85;;;7.20;99.90;;;;;;5087376;28;20035;-65
2022/12/19 10:09:20;;;;;;;37.10;20.38;;;;;;;;;;5089704;28;20039;-65
2022/12/19 10:11:51;;;;;;;33.95;20.48;;;7.50;99.90;;;;;;5099893;28;20050;-65
2022/12/19 10:14:42;;;;;;;31.17;18.67;;;;;;;;;;5096873;28;20119;-68
2022/12/19 10:17:11;;;;;;;31.42;18.60;;;;;;;;;;5083372;28;20043;-66
2022/12/19 10:19:40;;;;;;;31.83;19.42;;;;;;;;;;5101942;28;20450;-66
2022/12/19 10:22:19;;;;;;;32.83;18.80;;;;;;;;;;5080250;28;20070;-66
2022/12/19 10:25:04;;;;;;;32.00;19.02;;;;;;;;;;5081663;28;20040;-66
2022/12/19 10:27:33;;;;;;;29.97;18.03;;;;;;;;;;5075540;28;20052;-64
2022/12/19 10:30:00;;;;;;;29.40;17.70;;;;;;;;;;5096876;28;20296;-66
2022/12/19 10:32:31;;;;;;;29.70;17.73;;;;;;;;;;5072118;28;20071;-66
2022/12/19 10:34:57;;;;;;;29.20;18.05;;;;;;;;;;5103565;28;20042;-65
2022/12/19 10:37:30;;;;;;;25.00;15.88;;;;;;;;;;5101396;28;20123;-66
2022/12/19 10:39:56;;;;;;;27.67;16.90;;;;;;;;;;5075679;28;20040;-66
2022/12/19 10:42:32;;;;;;;24.35;15.85;;;;;;;;;;5078846;28;20134;-66
2022/12/19 10:45:01;;;;;;;29.05;15.38;;;;;;;;;;5063957;28;20036;-66
2022/12/19 10:47:27;;;;;;;23.60;15.13;;;;;;;;;;5072759;28;20035;-66
2022/12/19 10:49:53;;;;;;;23.70;14.75;;;;;;;;;;5088436;28;20043;-65
2022/12/19 10:52:39;;;;;;;24.00;15.02;;;;;;;;;;5070104;28;20096;-66
2022/12/19 10:55:20;;;;;;;23.35;14.45;;;;;;;;;;5074517;28;20044;-66
2022/12/19 10:57:46;;;;;;;24.58;15.55;;;;;;;;;;5073772;28;20048;-66
2022/12/19 11:00:17;;;;;;;23.42;14.07;;;;;;;;;;5087904;28;20044;-66
2022/12/19 11:02:47;;;;;;;22.75;14.05;;;;;;;;;;5088237;28;20151;-66
2022/12/19 11:05:30;;;;;;;20.80;12.68;;;;;;;;;;5073767;28;20036;-65
2022/12/19 11:08:01;;;;;;;20.85;13.45;;;;;;;;;;5093267;28;20047;-66
2022/12/19 11:10:44;;;;;;;22.15;13.98;;;;;;;;;;5101873;28;20046;-65
2022/12/19 11:13:27;;;;;;;20.38;13.02;;;;;;;;;;5103117;28;20045;-64
2022/12/19 11:15:54;;;;;;;18.98;13.02;;;;;;;;;;5052636;28;20059;-64
2022/12/19 11:18:21;;;;;;;18.60;12.50;;;;;;;;;;5089418;28;20044;-64
2022/12/19 11:21:00;;;;;;;21.20;12.13;;;8.60;99.90;;;;;;5089434;28;20067;-64
2022/12/19 11:23:28;;;;;;;20.27;12.73;;;8.40;99.90;;;;;;5069221;28;20044;-63
2022/12/19 11:26:00;;;;;;;21.17;13.02;;;;;;;;;;5090214;28;20070;-63
2022/12/19 11:28:29;;;;;;;20.55;11.30;;;;;;;;;;5078168;28;20096;-63
2022/12/19 11:31:02;;;;;;;21.60;13.13;;;;;;;;;;5104688;28;20083;-63
2022/12/19 11:33:28;;;;;;;18.35;11.90;;;;;;;;;;5085404;28;20089;-63
2022/12/19 11:35:57;;;;;;;17.70;12.43;;;;;;;;;;5100110;28;20039;-62
2022/12/19 11:38:39;;;;;;;19.55;12.82;;;;;;;;;;5087695;28;20052;-64
2022/12/19 11:41:18;;;;;;;20.02;12.82;;;;;;;;;;5072901;28;20136;-61
2022/12/19 11:43:53;;;;;;;19.83;12.73;;;;;;;;;;5093111;28;20410;-60
2022/12/19 11:46:33;;;;;;;17.70;11.60;;;;;;;;;;5064165;28;20031;-59
2022/12/19 11:49:05;;;;;;;17.85;12.40;;;;;;;;;;5083505;28;20040;-62
2022/12/19 11:51:44;;;;;;;16.30;11.05;;;;;;;;;;5083147;28;20516;-63
2022/12/19 11:54:24;;;;;;;14.73;10.63;;;8.90;99.90;;;;;;5082492;28;20132;-64
2022/12/19 11:56:50;;;;;;;17.42;10.43;;;;;;;;;;5098540;28;20039;-63
2022/12/19 11:59:37;;;;;;;16.70;11.57;;;;;;;;;;5104214;28;20488;-64
2022/12/19 12:02:21;;;;;;;16.45;11.13;;;;;;;;;;5085918;28;20425;-65
2022/12/19 12:05:06;;;;;;;17.60;10.70;;;;;;;;;;5102937;28;20513;-66
2022/12/19 12:07:35;;;;;;;14.30;10.52;;;;;;;;;;5102379;28;20326;-64
2022/12/19 12:10:07;;;;;;;17.60;11.32;;;;;;;;;;5084902;28;20039;-63
2022/12/19 12:12:52;;;;;;;17.15;11.02;;;;;;;;;;5104376;28;20568;-63
2022/12/19 12:15:20;;;;;;;14.45;10.38;;;;;;;;;;5089006;28;20447;-64
2022/12/19 12:18:04;;;;;;;14.13;10.00;;;8.90;99.90;;;;;;5068507;28;20054;-63
2022/12/19 12:20:48;;;;;;;13.82;9.48;;;;;;;;;;5073776;28;20094;-64
2022/12/19 12:23:33;;;;;;;12.88;9.23;;;;;;;;;;5086842;28;20040;-64
2022/12/19 12:26:11;;;;;;;13.15;10.50;;;;;;;;;;5068621;28;20123;-65
2022/12/19 12:29:18;;;;;;;14.30;9.20;;;8.90;99.90;;;;;;5080425;28;20042;-64
2022/12/19 12:31:56;;;;;;;15.25;9.98;;;;;;;;;;4988427;28;20054;-63
2022/12/19 12:34:28;;;;;;;12.68;9.20;;;;;;;;;;5004031;28;20245;-63
2022/12/19 12:37:08;;;;;;;12.82;9.23;;;8.80;99.90;;;;;;5047659;28;20059;-64
2022/12/19 12:39:54;;;;;;;14.43;10.23;;;;;;;;;;5080044;28;20085;-64
2022/12/19 12:42:42;;;;;;;13.25;9.60;;;;;;;;;;5082610;28;20039;-65
2022/12/19 12:45:19;;;;;;;17.10;9.60;;;;;;;;;;5086575;28;20047;-64
2022/12/19 12:47:47;;;;;;;13.93;9.63;;;;;;;;;;5087094;28;20040;-64
2022/12/19 12:50:16;;;;;;;17.95;9.57;;;8.90;99.90;;;;;;5066497;28;20100;-63
2022/12/19 12:52:47;;;;;;;15.10;10.05;;;;;;;;;;5090325;28;20043;-64
2022/12/19 12:55:26;;;;;;;13.70;9.52;;;8.90;99.90;;;;;;5076690;28;20512;-64
2022/12/19 12:57:52;;;;;;;16.02;10.25;;;;;;;;;;5074530;28;20051;-64
2022/12/19 13:00:20;;;;;;;13.05;9.82;;;;;;;;;;5080245;28;20044;-61
2022/12/19 13:02:57;;;;;;;14.20;10.60;;;;;;;;;;5082390;28;20064;-61
2022/12/19 13:05:35;;;;;;;13.43;10.05;;;9.00;99.90;;;;;;5080839;28;20055;-61
2022/12/19 13:08:00;;;;;;;14.95;10.52;;;9.10;99.90;;;;;;5091737;28;20053;-63
2022/12/19 13:10:28;;;;;;;16.20;10.75;;;;;;;;;;5091913;28;20047;-63
2022/12/19 13:13:02;;;;;;;15.50;11.18;;;9.10;99.90;;;;;;5110298;28;20096;-62
2022/12/19 13:15:28;;;;;;;16.23;10.98;;;;;;;;;;5109213;28;20047;-62
2022/12/19 13:17:54;;;;;;;16.38;12.18;;;9.10;99.90;;;;;;5093234;28;20086;-63
2022/12/19 13:20:38;;;;;;;17.33;11.90;;;;;;;;;;5088137;28;20131;-62
2022/12/19 13:23:19;;;;;;;14.03;10.90;;;;;;;;;;5112137;28;20049;-63
2022/12/19 13:25:45;;;;;;;18.90;11.52;;;;;;;;;;5112543;28;20393;-62
2022/12/19 13:28:15;;;;;;;21.52;11.38;;;;;;;;;;5108482;28;20034;-62
2022/12/19 13:31:00;;;;;;;16.27;12.32;;;;;;;;;;5090221;28;20066;-63
2022/12/19 13:33:45;;;;;;;16.63;11.63;;;;;;;;;;5110861;28;20396;-62
2022/12/19 13:36:45;;;;;;;19.10;13.10;;;9.20;99.90;;;;;;5094253;28;20401;-61
2022/12/19 13:39:29;;;;;;;19.83;11.32;;;9.10;99.90;;;;;;5094108;28;20036;-62
2022/12/19 13:44:53;;;;;;;22.67;11.80;;;;;;;;;;5110120;28;20039;-63
2022/12/19 13:47:19;;;;;;;16.33;11.32;;;;;;;;;;5109042;28;20043;-63
2022/12/19 13:49:45;;;;;;;15.45;10.40;;;9.00;99.90;;;;;;5110438;28;20180;-62
2022/12/19 13:52:11;;;;;;;16.17;9.68;;;;;;;;;;5111562;28;20146;-63
2022/12/19 13:54:45;;;;;;;15.27;10.07;;;;;;;;;;5094170;28;20420;-63
2022/12/19 13:57:20;;;;;;;15.40;9.27;;;;;;;;;;5084741;28;20043;-62
2022/12/19 13:59:46;;;;;;;12.95;8.88;;;9.10;99.90;;;;;;5089865;28;20070;-63
2022/12/19 14:02:20;;;;;;;12.00;8.68;;;;;;;;;;5107370;28;20051;-63
2022/12/19 14:04:46;;;;;;;10.27;7.93;;;;;;;;;;5102174;28;20032;-63
2022/12/19 14:07:29;;;;;;;13.13;8.77;;;9.20;99.90;;;;;;5107148;28;20393;-63
2022/12/19 14:09:55;;;;;;;11.10;7.65;;;9.30;99.90;;;;;;5107274;28;20051;-63
2022/12/19 14:15:23;;;;;;;14.57;7.70;;;;;;;;;;5049593;28;20052;-63
2022/12/19 14:17:49;;;;;;;11.40;7.60;;;;;;;;;;5090134;28;20050;-62
2022/12/19 14:20:25;;;;;;;10.65;7.30;;;;;;;;;;5106047;28;20519;-63
2022/12/19 14:23:00;;;;;;;10.27;7.60;;;;;;;;;;5103561;28;20046;-62
2022/12/19 14:25:47;;;;;;;11.35;6.68;;;;;;;;;;5105366;28;20311;-62
2022/12/19 14:28:22;;;;;;;7.95;6.90;;;;;;;;;;5091954;28;20075;-61
2022/12/19 14:30:51;;;;;;;14.20;7.68;;;;;;;;;;5092228;28;20135;-61